Time;durP1;ratioP1;P1;durP2;ratioP2;P2;SDS_P1;SDS_P2;PMS_P1;PMS_P2;Temp;Humidity;BMP_temperature;BMP_pressure;BME280_temperature;BME280_humidity;BME280_pressure;Samples;Min_cycle;Max_cycle;Signal;HPM_P1;HPM_P2
2023/01/13 00:01:27;;;;;;;12.70;3.03;;;9.20;92.00;;;;;;5014933;28;20034;-53
2023/01/13 00:03:55;;;;;;;15.52;4.80;;;9.20;92.00;;;;;;5031252;28;20041;-52
2023/01/13 00:06:28;;;;;;;17.60;3.88;;;9.30;92.10;;;;;;5034105;28;20051;-51
2023/01/13 00:08:54;;;;;;;18.50;3.88;;;9.30;91.90;;;;;;5036821;28;20013;-52
2023/01/13 00:11:22;;;;;;;18.73;5.35;;;9.20;91.80;;;;;;5037426;28;20068;-52
2023/01/13 00:13:49;;;;;;;20.00;4.30;;;9.40;91.60;;;;;;5026676;28;20029;-51
2023/01/13 00:16:17;;;;;;;18.25;3.53;;;9.30;91.50;;;;;;5018174;28;20142;-53
2023/01/13 00:18:45;;;;;;;19.58;4.60;;;9.40;91.40;;;;;;5024882;28;20033;-50
2023/01/13 00:21:32;;;;;;;22.35;5.40;;;9.30;91.00;;;;;;5033165;28;20053;-51
2023/01/13 00:24:01;;;;;;;24.02;4.53;;;9.30;90.80;;;;;;5033132;28;20037;-50
2023/01/13 00:26:34;;;;;;;24.38;5.75;;;9.20;90.10;;;;;;5038078;28;20028;-50
2023/01/13 00:29:00;;;;;;;18.60;4.68;;;9.20;89.80;;;;;;5029793;28;20504;-47
2023/01/13 00:31:30;;;;;;;15.70;4.18;;;9.10;89.30;;;;;;5033575;28;20104;-47
2023/01/13 00:33:59;;;;;;;13.68;3.85;;;9.20;89.30;;;;;;5020052;28;20528;-47
2023/01/13 00:36:26;;;;;;;27.92;6.10;;;9.10;88.90;;;;;;5030032;28;20044;-49
2023/01/13 00:38:53;;;;;;;20.02;4.75;;;9.10;88.80;;;;;;5019194;28;20033;-46
2023/01/13 00:41:23;;;;;;;16.30;3.75;;;9.10;88.50;;;;;;5034301;28;20021;-50
2023/01/13 00:43:50;;;;;;;15.15;5.25;;;9.10;88.50;;;;;;5034337;28;20030;-50
2023/01/13 00:46:19;;;;;;;22.08;4.63;;;9.10;88.70;;;;;;5033988;28;20128;-47
2023/01/13 00:48:46;;;;;;;18.10;5.37;;;9.10;88.60;;;;;;5033110;28;20096;-44
2023/01/13 00:51:30;;;;;;;16.60;4.40;;;9.10;88.60;;;;;;5031620;28;20602;-44
2023/01/13 00:53:57;;;;;;;25.08;5.43;;;9.00;88.80;;;;;;5039789;28;20435;-46
2023/01/13 00:56:24;;;;;;;17.40;4.18;;;9.10;88.70;;;;;;5051587;28;20029;-48
2023/01/13 00:58:51;;;;;;;22.17;5.65;;;9.00;88.60;;;;;;5013927;28;20061;-46
2023/01/13 01:01:24;;;;;;;19.05;4.30;;;8.90;88.60;;;;;;5029628;28;20061;-47
2023/01/13 01:03:53;;;;;;;20.15;4.80;;;8.90;88.70;;;;;;5029417;28;20451;-47
2023/01/13 01:06:24;;;;;;;25.38;4.40;;;8.90;88.60;;;;;;5026657;28;20440;-44
2023/01/13 01:08:52;;;;;;;23.02;4.38;;;8.90;88.60;;;;;;5032195;28;20406;-45
2023/01/13 01:11:23;;;;;;;23.58;4.93;;;8.90;88.90;;;;;;5012917;28;20050;-47
2023/01/13 01:13:53;;;;;;;35.53;5.85;;;8.90;89.30;;;;;;5013039;28;20404;-47
2023/01/13 01:16:23;;;;;;;18.42;3.78;;;8.90;89.40;;;;;;5029170;28;20030;-47
2023/01/13 01:18:51;;;;;;;22.77;4.78;;;8.90;89.20;;;;;;5035843;28;20031;-46
2023/01/13 01:21:20;;;;;;;21.83;4.10;;;8.90;87.90;;;;;;5030865;28;20045;-48
2023/01/13 01:23:46;;;;;;;17.83;4.20;;;8.80;86.50;;;;;;5019014;28;20032;-48
2023/01/13 01:26:31;;;;;;;20.67;5.63;;;8.70;85.70;;;;;;5040874;28;20032;-45
2023/01/13 01:28:58;;;;;;;14.50;3.75;;;8.60;85.50;;;;;;5012417;28;20037;-46
2023/01/13 01:31:30;;;;;;;19.35;4.40;;;8.60;85.70;;;;;;5020775;28;20025;-48
2023/01/13 01:33:56;;;;;;;18.88;5.07;;;8.50;85.90;;;;;;5030123;28;20083;-45
2023/01/13 01:36:25;;;;;;;30.42;5.35;;;8.40;86.20;;;;;;5013186;28;20034;-46
2023/01/13 01:38:54;;;;;;;16.08;4.57;;;8.40;86.50;;;;;;5017716;28;20037;-43
2023/01/13 01:41:23;;;;;;;17.15;4.10;;;8.30;86.80;;;;;;5031701;28;20025;-44
2023/01/13 01:44:27;;;;;;;18.80;3.95;;;8.30;87.10;;;;;;5028312;28;20034;-44
2023/01/13 01:46:55;;;;;;;27.25;5.18;;;8.30;87.20;;;;;;5012608;28;20049;-46
2023/01/13 01:49:33;;;;;;;20.77;4.00;;;8.30;87.40;;;;;;5021296;28;20034;-44
2023/01/13 01:52:05;;;;;;;21.25;5.53;;;8.30;87.40;;;;;;5011326;28;20125;-48
2023/01/13 01:54:53;;;;;;;22.98;4.65;;;8.30;87.30;;;;;;5019373;28;20451;-46
2023/01/13 01:57:27;;;;;;;20.52;5.25;;;8.20;87.20;;;;;;5013406;28;20030;-46
2023/01/13 01:59:56;;;;;;;21.52;5.05;;;8.20;87.10;;;;;;5031875;28;20021;-45
2023/01/13 02:02:23;;;;;;;31.33;5.50;;;8.20;86.90;;;;;;5031270;28;20454;-45
2023/01/13 02:04:52;;;;;;;17.33;4.43;;;8.20;86.70;;;;;;5043867;28;20037;-46
2023/01/13 02:07:24;;;;;;;19.45;6.47;;;8.20;86.80;;;;;;5037624;28;20065;-43
2023/01/13 02:09:53;;;;;;;19.77;5.50;;;8.20;86.90;;;;;;5030588;28;20366;-44
2023/01/13 02:12:28;;;;;;;;;;;8.10;87.00;;;;;;5030564;28;20022;-44
2023/01/13 02:14:58;;;;;;;22.88;5.30;;;8.10;87.10;;;;;;5017912;28;19987;-44
2023/01/13 02:17:42;;;;;;;;;;;8.10;87.10;;;;;;5011409;28;20518;-46
2023/01/13 02:20:32;;;;;;;24.67;6.88;;;8.00;87.10;;;;;;5030196;28;19962;-46
2023/01/13 02:26:51;;;;;;;34.75;6.60;;;8.00;87.00;;;;;;5023087;28;20045;-45
2023/01/13 02:32:38;;;;;;;21.23;5.53;;;7.90;86.90;;;;;;5022911;28;20035;-45
2023/01/13 02:35:26;;;;;;;28.40;7.05;;;7.90;86.80;;;;;;5034209;28;20029;-46
2023/01/13 02:37:55;;;;;;;24.45;6.35;;;7.80;86.80;;;;;;5036671;28;20017;-44
2023/01/13 02:44:07;;;;;;;22.40;5.80;;;7.70;86.50;;;;;;5016236;28;20099;-44
2023/01/13 02:46:50;;;;;;;27.30;5.22;;;7.70;86.40;;;;;;5018787;28;20482;-46
2023/01/13 02:49:30;;;;;;;26.75;5.80;;;7.50;86.40;;;;;;5023415;28;20041;-44
2023/01/13 02:52:05;;;;;;;26.63;6.38;;;7.50;86.60;;;;;;5016463;28;20026;-45
2023/01/13 02:54:36;;;;;;;34.20;8.10;;;7.40;86.80;;;;;;5015916;28;20088;-45
2023/01/13 02:57:05;;;;;;;18.90;4.95;;;7.40;86.80;;;;;;5016347;28;20026;-44
2023/01/13 02:59:34;;;;;;;33.20;6.55;;;7.40;86.90;;;;;;5022958;28;20516;-49
2023/01/13 03:02:04;;;;;;;36.90;6.72;;;7.40;87.00;;;;;;5035863;28;20433;-47
2023/01/13 03:04:50;;;;;;;26.05;5.45;;;7.40;87.00;;;;;;5034056;28;20030;-49
2023/01/13 03:07:55;;;;;;;37.67;8.05;;;7.40;87.00;;;;;;5029491;28;20095;-47
2023/01/13 03:10:29;;;;;;;24.40;5.95;;;7.40;87.20;;;;;;5017808;28;20026;-45
2023/01/13 03:13:36;;;;;;;30.23;6.35;;;7.40;86.90;;;;;;5015667;28;20041;-45
2023/01/13 03:16:44;;;;;;;27.88;5.97;;;7.40;86.90;;;;;;5014742;28;20025;-49
2023/01/13 03:19:37;;;;;;;31.08;7.28;;;7.40;87.10;;;;;;5018868;28;20029;-44
2023/01/13 03:22:30;;;;;;;35.50;6.22;;;7.40;87.00;;;;;;5034090;28;20033;-46
2023/01/13 03:25:14;;;;;;;33.35;6.97;;;7.50;87.00;;;;;;5032966;28;20029;-44
2023/01/13 03:27:52;;;;;;;32.65;6.80;;;7.50;86.80;;;;;;5032386;28;20033;-45
2023/01/13 03:30:40;;;;;;;43.63;9.52;;;7.50;86.90;;;;;;5029269;28;20052;-48
2023/01/13 03:33:22;;;;;;;31.30;6.45;;;7.50;86.70;;;;;;5034504;28;20026;-48
2023/01/13 03:35:53;;;;;;;23.92;6.07;;;7.50;86.70;;;;;;5024652;28;20030;-44
2023/01/13 03:38:34;;;;;;;26.35;6.10;;;7.50;86.50;;;;;;5055449;28;20021;-43
2023/01/13 03:41:14;;;;;;;25.63;6.97;;;7.50;86.80;;;;;;5040531;28;20052;-43
2023/01/13 03:46:45;;;;;;;29.20;6.50;;;7.50;86.50;;;;;;5014563;28;20104;-44
2023/01/13 03:49:20;;;;;;;27.88;5.00;;;7.50;86.60;;;;;;5016162;28;20442;-48
2023/01/13 03:51:52;;;;;;;26.98;5.68;;;7.50;86.70;;;;;;5033517;28;20057;-43
2023/01/13 03:54:22;;;;;;;25.92;6.53;;;7.50;86.70;;;;;;5020997;28;20017;-44
2023/01/13 03:57:00;;;;;;;25.88;5.82;;;7.50;86.70;;;;;;5029767;28;20030;-45
2023/01/13 03:59:33;;;;;;;22.90;5.68;;;7.50;86.90;;;;;;5026638;28;20091;-43
2023/01/13 04:02:19;;;;;;;28.98;6.63;;;7.50;86.80;;;;;;5027337;28;20038;-46
2023/01/13 04:04:59;;;;;;;27.92;5.13;;;7.50;86.70;;;;;;5030711;28;20037;-46
2023/01/13 04:07:58;;;;;;;24.98;7.10;;;7.50;86.70;;;;;;5033342;28;20460;-46
2023/01/13 04:10:50;;;;;;;31.92;7.78;;;7.50;86.70;;;;;;5034643;28;20473;-44
2023/01/13 04:13:21;;;;;;;27.38;6.55;;;7.40;86.70;;;;;;5033803;28;20582;-46
2023/01/13 04:15:48;;;;;;;46.03;8.05;;;7.40;86.80;;;;;;5030883;28;20018;-45
2023/01/13 04:18:20;;;;;;;27.45;7.03;;;7.40;86.70;;;;;;5021133;28;20476;-50
2023/01/13 04:20:49;;;;;;;24.95;5.25;;;7.50;86.80;;;;;;5030809;28;20036;-47
2023/01/13 04:23:18;;;;;;;25.40;6.97;;;7.40;86.70;;;;;;5043876;28;20053;-48
2023/01/13 04:25:46;;;;;;;30.75;5.88;;;7.40;86.90;;;;;;5035579;28;20026;-44
2023/01/13 04:28:14;;;;;;;22.50;5.07;;;7.40;87.00;;;;;;5014609;28;20030;-45
2023/01/13 04:30:44;;;;;;;29.25;7.28;;;7.50;86.90;;;;;;5034288;28;20017;-43
2023/01/13 04:33:12;;;;;;;17.52;5.45;;;7.60;86.80;;;;;;5034616;28;20028;-45
2023/01/13 04:35:39;;;;;;;25.88;6.13;;;7.50;86.70;;;;;;5030145;28;20040;-44
2023/01/13 04:38:12;;;;;;;26.05;5.53;;;7.60;86.70;;;;;;5033387;28;20045;-45
2023/01/13 04:40:40;;;;;;;31.40;7.75;;;7.60;86.70;;;;;;5023464;28;20122;-45
2023/01/13 04:43:07;;;;;;;25.70;7.13;;;7.70;86.50;;;;;;5037147;28;20362;-44
2023/01/13 04:45:36;;;;;;;23.92;5.85;;;7.70;86.40;;;;;;5028559;28;20030;-47
2023/01/13 04:48:02;;;;;;;26.00;6.10;;;7.70;86.20;;;;;;5032253;28;20037;-44
2023/01/13 04:50:30;;;;;;;19.20;5.53;;;7.70;86.40;;;;;;5031690;28;20061;-45
2023/01/13 04:52:56;;;;;;;22.02;4.75;;;7.60;86.40;;;;;;5039718;28;20037;-50
2023/01/13 04:55:26;;;;;;;24.88;5.60;;;7.60;86.50;;;;;;5016430;28;20428;-45
2023/01/13 04:57:53;;;;;;;23.65;5.45;;;7.60;86.50;;;;;;5026757;28;20044;-43
2023/01/13 05:00:22;;;;;;;23.15;5.30;;;7.60;86.50;;;;;;5026579;28;20034;-44
2023/01/13 05:02:52;;;;;;;22.38;5.18;;;7.60;86.70;;;;;;5031918;28;20061;-45
2023/01/13 05:05:19;;;;;;;26.05;6.10;;;7.50;86.60;;;;;;5031638;28;20094;-46
2023/01/13 05:07:48;;;;;;;30.05;5.32;;;7.50;86.90;;;;;;5016437;28;20041;-46
2023/01/13 05:10:14;;;;;;;25.58;5.38;;;7.50;87.20;;;;;;5015084;28;20025;-48
2023/01/13 05:18:12;;;;;;;20.23;5.38;;;7.40;87.40;;;;;;5014072;28;20032;-47
2023/01/13 05:20:40;;;;;;;24.17;4.93;;;7.40;87.40;;;;;;5023155;28;20025;-49
2023/01/13 05:25:51;;;;;;;24.10;5.78;;;7.40;87.50;;;;;;5020511;28;20413;-46
2023/01/13 05:28:17;;;;;;;25.90;5.57;;;7.30;87.60;;;;;;5031510;28;20033;-49
2023/01/13 05:30:45;;;;;;;28.48;5.70;;;7.40;87.60;;;;;;5038906;28;20040;-48
2023/01/13 05:33:15;;;;;;;29.85;6.20;;;7.40;87.70;;;;;;5040560;28;20405;-44
2023/01/13 05:35:46;;;;;;;;;;;7.40;87.60;;;;;;5034170;28;20049;-43
2023/01/13 05:38:17;;;;;;;33.80;5.47;;;7.40;87.60;;;;;;5052142;28;20242;-45
2023/01/13 05:43:33;;;;;;;28.02;7.40;;;7.40;87.70;;;;;;5032142;28;20492;-44
2023/01/13 05:46:17;;;;;;;27.15;4.88;;;7.40;87.60;;;;;;5026030;28;20056;-47
2023/01/13 05:48:44;;;;;;;33.25;7.35;;;7.40;87.60;;;;;;5019937;28;20029;-43
2023/01/13 05:51:12;;;;;;;46.17;6.47;;;7.40;87.50;;;;;;5030512;28;20017;-46
2023/01/13 05:53:41;;;;;;;29.38;5.00;;;7.40;87.40;;;;;;5032743;28;20438;-46
2023/01/13 05:56:08;;;;;;;;;;;7.50;87.40;;;;;;5035355;28;20038;-44
2023/01/13 05:58:39;;;;;;;22.15;5.57;;;7.60;87.10;;;;;;5020770;28;19909;-45
2023/01/13 06:01:08;;;;;;;21.35;5.18;;;7.60;86.90;;;;;;5031220;28;20041;-50
2023/01/13 06:03:35;;;;;;;37.78;6.28;;;7.70;86.40;;;;;;5030811;28;20107;-45
2023/01/13 06:06:07;;;;;;;22.52;5.07;;;7.80;86.00;;;;;;5029233;28;20033;-48
2023/01/13 06:08:34;;;;;;;24.10;6.07;;;7.80;85.90;;;;;;5026415;28;20075;-46
2023/01/13 06:11:01;;;;;;;31.75;6.78;;;7.90;85.60;;;;;;5031371;28;20025;-50
2023/01/13 06:13:29;;;;;;;29.55;4.38;;;7.90;85.10;;;;;;5028052;28;20080;-46
2023/01/13 06:15:57;;;;;;;16.40;4.65;;;7.90;85.30;;;;;;5031295;28;20013;-50
2023/01/13 06:18:24;;;;;;;32.65;5.15;;;7.90;85.10;;;;;;5031138;28;20026;-47
2023/01/13 06:20:51;;;;;;;29.73;5.40;;;7.90;85.20;;;;;;5029800;28;20033;-50
2023/01/13 06:23:18;;;;;;;24.65;5.22;;;8.00;85.10;;;;;;5031931;28;20088;-51
2023/01/13 06:26:00;;;;;;;26.63;5.07;;;7.90;84.90;;;;;;5032002;28;20439;-47
2023/01/13 06:28:27;;;;;;;23.88;5.63;;;8.00;84.80;;;;;;5030579;28;20681;-46
2023/01/13 06:30:57;;;;;;;28.30;5.03;;;8.00;84.80;;;;;;5029818;28;20079;-46
2023/01/13 06:33:32;;;;;;;25.75;7.00;;;8.00;84.70;;;;;;5030063;28;20057;-46
2023/01/13 06:36:03;;;;;;;20.35;5.47;;;8.00;84.40;;;;;;5029792;28;20037;-52
2023/01/13 06:38:33;;;;;;;26.73;5.47;;;8.00;84.50;;;;;;5029915;28;20028;-45
2023/01/13 06:41:00;;;;;;;18.98;4.68;;;8.00;84.40;;;;;;5031579;28;20097;-48
2023/01/13 06:43:27;;;;;;;25.80;5.75;;;8.10;84.00;;;;;;5029004;28;20405;-47
2023/01/13 06:45:55;;;;;;;28.73;5.65;;;8.10;84.20;;;;;;5022854;28;20092;-47
2023/01/13 06:48:28;;;;;;;28.80;5.28;;;8.00;84.50;;;;;;5019649;28;20025;-50
2023/01/13 06:50:55;;;;;;;18.95;4.90;;;8.10;84.30;;;;;;5023211;28;20014;-45
2023/01/13 06:53:22;;;;;;;24.67;5.35;;;8.00;84.40;;;;;;5027530;28;20056;-47
2023/01/13 06:55:48;;;;;;;30.42;6.28;;;8.10;84.90;;;;;;5024147;28;20029;-48
2023/01/13 06:58:14;;;;;;;24.60;5.40;;;8.10;85.00;;;;;;5030183;28;20032;-51
2023/01/13 07:00:40;;;;;;;29.90;8.38;;;8.00;85.20;;;;;;5028688;28;20662;-51
2023/01/13 07:03:06;;;;;;;24.25;5.18;;;8.00;85.40;;;;;;5027313;28;20060;-45
2023/01/13 07:05:32;;;;;;;27.50;5.40;;;8.00;85.20;;;;;;5025545;28;20487;-46
2023/01/13 07:08:00;;;;;;;21.98;5.03;;;8.00;85.10;;;;;;5030502;28;20029;-46
2023/01/13 07:10:27;;;;;;;24.75;4.90;;;8.00;85.50;;;;;;5028057;28;20192;-47
2023/01/13 07:15:39;;;;;;;18.52;4.60;;;8.00;85.00;;;;;;5020133;28;20469;-46
2023/01/13 07:18:06;;;;;;;30.75;5.03;;;8.10;85.10;;;;;;5027172;28;20197;-49
2023/01/13 07:20:32;;;;;;;22.90;5.10;;;8.00;84.90;;;;;;5027341;28;20371;-45
2023/01/13 07:22:59;;;;;;;27.08;5.75;;;8.00;84.90;;;;;;5033810;28;20025;-48
2023/01/13 07:25:26;;;;;;;22.02;5.57;;;8.00;84.80;;;;;;5032770;28;20109;-45
2023/01/13 07:27:57;;;;;;;23.45;4.30;;;8.00;85.20;;;;;;5015402;28;20025;-50
2023/01/13 07:30:23;;;;;;;21.92;4.85;;;7.90;85.30;;;;;;5033012;28;20136;-46
2023/01/13 07:32:50;;;;;;;30.25;5.00;;;7.90;85.70;;;;;;5031786;28;20026;-48
2023/01/13 07:35:21;;;;;;;23.15;5.38;;;7.80;86.20;;;;;;5031975;28;20045;-52
2023/01/13 07:37:48;;;;;;;21.50;5.13;;;7.80;86.60;;;;;;5033964;28;20108;-49
2023/01/13 07:40:16;;;;;;;23.88;6.03;;;7.80;87.10;;;;;;5034135;28;20030;-43
2023/01/13 07:45:27;;;;;;;24.92;5.32;;;7.70;87.70;;;;;;5027578;28;20037;-42
2023/01/13 07:47:57;;;;;;;25.00;7.47;;;7.70;88.00;;;;;;5027143;28;20451;-49
2023/01/13 07:50:27;;;;;;;21.58;4.10;;;7.70;88.10;;;;;;5027806;28;20367;-47
2023/01/13 07:52:57;;;;;;;20.17;4.15;;;7.70;88.10;;;;;;5031822;28;20030;-50
2023/01/13 07:55:27;;;;;;;26.27;5.82;;;7.70;88.00;;;;;;5032617;28;20030;-55
2023/01/13 07:57:54;;;;;;;20.55;4.45;;;7.70;88.10;;;;;;5033012;28;20032;-56
2023/01/13 08:00:22;;;;;;;21.27;5.25;;;7.70;88.60;;;;;;5028071;28;20029;-57
2023/01/13 08:02:47;;;;;;;18.25;5.82;;;7.60;89.10;;;;;;5027740;28;20049;-54
2023/01/13 08:05:15;;;;;;;21.23;4.95;;;7.60;89.30;;;;;;5028800;28;20033;-55
2023/01/13 08:07:44;;;;;;;17.02;4.00;;;7.60;89.50;;;;;;5030740;28;20045;-52
2023/01/13 08:10:11;;;;;;;16.27;4.15;;;7.60;89.40;;;;;;5030705;28;20033;-51
2023/01/13 08:15:26;;;;;;;20.92;4.45;;;7.60;89.50;;;;;;5034651;28;20499;-49
2023/01/13 08:17:53;;;;;;;18.60;3.67;;;7.60;89.60;;;;;;5031750;28;20121;-54
2023/01/13 08:20:20;;;;;;;18.70;3.85;;;7.60;89.60;;;;;;5032921;28;20044;-56
2023/01/13 08:22:46;;;;;;;17.83;4.28;;;7.50;89.80;;;;;;5022346;28;20382;-54
2023/01/13 08:25:12;;;;;;;18.40;4.00;;;7.60;90.10;;;;;;5031880;28;20044;-55
2023/01/13 08:27:39;;;;;;;14.88;3.72;;;7.50;90.10;;;;;;5029027;28;20030;-52
2023/01/13 08:30:08;;;;;;;13.15;3.50;;;7.50;90.40;;;;;;5024193;28;20038;-55
2023/01/13 08:32:36;;;;;;;15.40;2.85;;;7.50;90.50;;;;;;5024276;28;20584;-53
2023/01/13 08:35:01;;;;;;;15.63;3.45;;;7.40;90.70;;;;;;5030118;28;20045;-52
2023/01/13 08:37:28;;;;;;;13.13;2.88;;;7.40;90.80;;;;;;5032762;28;20033;-53
2023/01/13 08:39:54;;;;;;;15.60;4.35;;;7.30;90.80;;;;;;5019477;28;20061;-48
2023/01/13 08:42:25;;;;;;;12.07;3.65;;;7.30;90.70;;;;;;5012820;28;20069;-47
2023/01/13 08:44:53;;;;;;;13.90;3.50;;;7.40;90.50;;;;;;5031111;28;20025;-51
2023/01/13 08:47:20;;;;;;;14.93;4.07;;;7.40;90.40;;;;;;5027735;28;20029;-45
2023/01/13 08:49:46;;;;;;;11.55;4.57;;;7.40;90.30;;;;;;5021390;28;20017;-47
2023/01/13 08:52:14;;;;;;;16.67;5.03;;;7.50;90.00;;;;;;5032438;28;20029;-47
2023/01/13 08:54:41;;;;;;;23.92;4.45;;;7.50;89.90;;;;;;5025732;28;20034;-47
2023/01/13 08:57:08;;;;;;;14.20;3.20;;;7.50;89.80;;;;;;5013329;28;20088;-47
2023/01/13 08:59:39;;;;;;;10.05;2.58;;;7.50;89.80;;;;;;5019003;28;20397;-49
2023/01/13 09:02:18;;;;;;;17.23;3.95;;;7.50;89.60;;;;;;5031448;28;20861;-47
2023/01/13 09:04:44;;;;;;;14.48;3.75;;;7.50;89.60;;;;;;5031012;28;20036;-45
2023/01/13 09:07:11;;;;;;;15.68;3.45;;;7.60;89.40;;;;;;5030622;28;20040;-46
2023/01/13 09:09:38;;;;;;;15.77;3.30;;;7.70;89.60;;;;;;5031032;28;20113;-47
2023/01/13 09:14:52;;;;;;;12.77;3.25;;;7.90;89.30;;;;;;5031788;28;20027;-45
2023/01/13 09:17:18;;;;;;;18.38;3.85;;;7.90;89.40;;;;;;5031170;28;20029;-48
2023/01/13 09:19:50;;;;;;;14.38;3.10;;;7.90;89.60;;;;;;5031454;28;20033;-52
2023/01/13 09:22:18;;;;;;;16.40;3.58;;;7.90;89.20;;;;;;5030131;28;20490;-48
2023/01/13 09:24:45;;;;;;;14.57;3.08;;;7.90;89.70;;;;;;5031525;28;20053;-49
2023/01/13 09:27:13;;;;;;;19.85;3.70;;;8.00;89.50;;;;;;5030929;28;20029;-50
2023/01/13 09:29:40;;;;;;;18.85;4.53;;;7.90;89.00;;;;;;5022035;28;20026;-49
2023/01/13 09:32:11;;;;;;;16.88;4.03;;;7.90;88.90;;;;;;5032470;28;20057;-48
2023/01/13 09:37:23;;;;;;;16.60;4.47;;;8.00;88.90;;;;;;5025540;28;20048;-51
2023/01/13 09:39:48;;;;;;;15.35;4.30;;;7.90;88.40;;;;;;5029047;28;20116;-49
2023/01/13 09:45:49;;;;;;;23.67;5.80;;;7.90;88.70;;;;;;5026625;28;20048;-47
2023/01/13 09:48:28;;;;;;;14.93;3.00;;;7.90;88.70;;;;;;5024210;28;20030;-48
2023/01/13 09:51:19;;;;;;;20.80;3.72;;;7.90;88.50;;;;;;5021961;28;20029;-47
2023/01/13 09:54:15;;;;;;;19.00;5.20;;;7.90;88.70;;;;;;5009345;28;20103;-49
2023/01/13 09:56:42;;;;;;;22.48;3.83;;;7.90;88.50;;;;;;5030400;28;20037;-47
2023/01/13 09:59:11;;;;;;;21.20;5.85;;;7.90;88.60;;;;;;5026655;28;20021;-48
2023/01/13 10:01:36;;;;;;;17.30;4.18;;;7.90;88.50;;;;;;5024866;28;20044;-49
2023/01/13 10:04:13;;;;;;;21.90;3.95;;;7.90;88.70;;;;;;5028509;28;20033;-51
2023/01/13 10:06:45;;;;;;;15.65;4.15;;;7.90;88.90;;;;;;5028804;28;20500;-49
2023/01/13 10:09:40;;;;;;;14.38;3.88;;;7.90;89.00;;;;;;5026041;28;20374;-55
2023/01/13 10:15:02;;;;;;;15.68;4.40;;;7.90;89.30;;;;;;5023246;28;20419;-62
2023/01/13 10:17:53;;;;;;;16.10;3.20;;;7.90;89.40;;;;;;4996825;28;20048;-61
2023/01/13 10:20:36;;;;;;;14.48;3.80;;;7.90;89.60;;;;;;5025868;28;20407;-62
2023/01/13 10:23:39;;;;;;;19.77;3.60;;;7.80;90.10;;;;;;5011004;28;20056;-60
2023/01/13 10:26:42;;;;;;;17.95;3.58;;;7.70;90.50;;;;;;5026459;28;20039;-59
2023/01/13 10:29:29;;;;;;;18.95;3.90;;;7.70;90.80;;;;;;5026573;28;20032;-59
2023/01/13 10:31:57;;;;;;;22.90;4.82;;;7.70;90.70;;;;;;5024246;28;20432;-59
2023/01/13 10:34:26;;;;;;;13.30;3.60;;;7.70;90.80;;;;;;5028323;28;20068;-59
2023/01/13 10:37:05;;;;;;;12.87;2.47;;;7.60;91.00;;;;;;5025717;28;20332;-60
2023/01/13 10:39:46;;;;;;;15.05;3.10;;;7.60;91.20;;;;;;5018755;28;20287;-59
2023/01/13 10:42:16;;;;;;;21.08;3.70;;;7.70;91.50;;;;;;5026621;28;20025;-58
2023/01/13 10:44:59;;;;;;;11.77;3.95;;;7.60;91.60;;;;;;5029473;28;20036;-57
2023/01/13 10:48:02;;;;;;;19.27;4.53;;;7.70;91.70;;;;;;5008711;28;20042;-58
2023/01/13 10:50:34;;;;;;;18.48;3.72;;;7.70;91.80;;;;;;5029515;28;20413;-57
2023/01/13 10:53:15;;;;;;;17.33;5.03;;;7.70;91.70;;;;;;5035776;28;20033;-58
2023/01/13 10:55:42;;;;;;;15.65;4.28;;;7.60;91.70;;;;;;5031470;28;20096;-60
2023/01/13 10:58:27;;;;;;;19.15;5.68;;;7.60;91.70;;;;;;5026609;28;20033;-58
2023/01/13 11:01:03;;;;;;;11.88;2.65;;;7.60;91.60;;;;;;5023463;28;20073;-59
2023/01/13 11:03:41;;;;;;;13.48;3.50;;;7.60;91.50;;;;;;5031633;28;20077;-55
2023/01/13 11:06:17;;;;;;;8.35;2.78;;;7.50;91.50;;;;;;5033310;28;20052;-59
2023/01/13 11:08:46;;;;;;;12.60;3.60;;;7.60;91.70;;;;;;5033230;28;20029;-59
2023/01/13 11:11:34;;;;;;;13.57;3.00;;;7.60;91.80;;;;;;5032426;28;20068;-56
2023/01/13 11:16:54;;;;;;;13.75;3.47;;;7.50;91.40;;;;;;5031226;28;20136;-56
2023/01/13 11:19:24;;;;;;;17.55;3.00;;;7.50;91.60;;;;;;5031036;28;20033;-55
2023/01/13 11:22:24;;;;;;;15.30;3.30;;;7.50;91.70;;;;;;5035157;28;20036;-56
2023/01/13 11:25:01;;;;;;;18.42;3.53;;;7.50;91.70;;;;;;5030999;28;20029;-51
2023/01/13 11:27:59;;;;;;;12.05;3.88;;;7.50;91.70;;;;;;5032412;28;20048;-54
2023/01/13 11:30:53;;;;;;;9.35;2.50;;;7.50;91.60;;;;;;5033446;28;20079;-59
2023/01/13 11:33:36;;;;;;;11.85;2.50;;;7.50;91.80;;;;;;5041895;28;20036;-57
2023/01/13 11:36:22;;;;;;;13.23;3.17;;;7.50;91.80;;;;;;5014038;28;20026;-55
2023/01/13 11:39:01;;;;;;;14.63;3.00;;;7.70;92.20;;;;;;5014526;28;20037;-54
2023/01/13 11:41:44;;;;;;;16.95;3.72;;;7.70;91.80;;;;;;5014471;28;20343;-51
2023/01/13 11:44:27;;;;;;;12.60;2.83;;;7.70;91.60;;;;;;5029421;28;20496;-50
2023/01/13 11:46:53;;;;;;;14.75;2.63;;;7.80;91.60;;;;;;5033119;28;20044;-55
2023/01/13 11:49:32;;;;;;;9.70;2.92;;;7.70;91.40;;;;;;5026640;28;20061;-55
2023/01/13 11:52:09;;;;;;;18.48;4.93;;;7.70;91.50;;;;;;5013751;28;20483;-55
2023/01/13 11:54:52;;;;;;;15.32;4.97;;;7.70;91.60;;;;;;5018121;28;20028;-55
2023/01/13 11:57:45;;;;;;;15.80;3.53;;;7.70;91.60;;;;;;5024513;28;20114;-55
2023/01/13 12:00:44;;;;;;;10.95;2.85;;;7.70;91.60;;;;;;5020368;28;20021;-55
2023/01/13 12:03:23;;;;;;;17.38;3.25;;;7.80;91.60;;;;;;5022756;28;20053;-55
2023/01/13 12:06:25;;;;;;;15.63;3.17;;;7.80;91.40;;;;;;5032716;28;20042;-54
2023/01/13 12:08:51;;;;;;;19.02;5.57;;;7.80;91.40;;;;;;5032086;28;20045;-59
2023/01/13 12:14:50;;;;;;;17.98;3.72;;;7.70;91.50;;;;;;5029769;28;20036;-57
2023/01/13 12:17:30;;;;;;;21.90;3.80;;;7.80;91.30;;;;;;5031685;28;20064;-56
2023/01/13 12:20:01;;;;;;;19.65;4.28;;;7.90;91.40;;;;;;5014766;28;20038;-52
2023/01/13 12:22:31;;;;;;;11.15;2.70;;;7.80;91.40;;;;;;5031377;28;20099;-53
2023/01/13 12:25:38;;;;;;;20.92;4.90;;;7.80;91.40;;;;;;5030213;28;20029;-54
2023/01/13 12:28:25;;;;;;;18.40;3.45;;;7.90;91.40;;;;;;5020133;28;20091;-52
2023/01/13 12:30:59;;;;;;;10.65;3.63;;;7.90;91.30;;;;;;5011365;28;20034;-52
2023/01/13 12:33:49;;;;;;;17.55;3.88;;;8.00;90.90;;;;;;5014308;28;20434;-53
2023/01/13 12:36:39;;;;;;;19.40;3.75;;;8.10;90.90;;;;;;5030113;28;20086;-55
2023/01/13 12:39:16;;;;;;;12.52;3.55;;;7.90;90.90;;;;;;5028560;28;20083;-58
2023/01/13 12:45:12;;;;;;;14.20;3.47;;;7.90;91.30;;;;;;5026248;28;20529;-57
2023/01/13 12:47:45;;;;;;;19.48;3.90;;;8.00;91.70;;;;;;5033583;28;20104;-55
2023/01/13 12:50:25;;;;;;;19.75;3.70;;;8.00;91.60;;;;;;5028559;28;20030;-54
2023/01/13 12:53:28;;;;;;;20.98;4.32;;;8.00;91.40;;;;;;5032495;28;20033;-52
2023/01/13 12:56:21;;;;;;;17.25;4.60;;;8.00;90.90;;;;;;5032975;28;20024;-51
2023/01/13 12:58:48;;;;;;;13.63;3.13;;;8.10;90.90;;;;;;5031532;28;20025;-51
2023/01/13 13:01:15;;;;;;;15.70;3.10;;;8.00;90.50;;;;;;5023361;28;20519;-54
2023/01/13 13:04:06;;;;;;;17.38;4.13;;;8.10;90.40;;;;;;5029623;28;20112;-50
2023/01/13 13:06:38;;;;;;;9.65;2.25;;;8.10;90.10;;;;;;5002764;28;20037;-50
2023/01/13 13:09:18;;;;;;;11.73;3.08;;;8.00;90.00;;;;;;5012934;28;20036;-52
2023/01/13 13:14:54;;;;;;;7.38;2.35;;;7.90;89.70;;;;;;5030801;28;20041;-50
2023/01/13 13:17:30;;;;;;;12.35;4.88;;;7.90;89.60;;;;;;5028893;28;20778;-50
2023/01/13 13:20:02;;;;;;;9.30;2.72;;;8.00;89.60;;;;;;5022153;28;20022;-48
2023/01/13 13:22:52;;;;;;;10.75;3.33;;;8.00;89.50;;;;;;5029401;28;20032;-50
2023/01/13 13:25:22;;;;;;;9.30;2.92;;;7.90;89.30;;;;;;5027489;28;20447;-46
2023/01/13 13:28:23;;;;;;;18.08;3.20;;;7.90;89.20;;;;;;5029586;28;20029;-49
2023/01/13 13:31:05;;;;;;;10.73;3.05;;;8.00;89.10;;;;;;5029880;28;20351;-49
2023/01/13 13:33:46;;;;;;;16.05;3.55;;;8.00;89.10;;;;;;5028918;28;20028;-46
2023/01/13 13:36:41;;;;;;;12.50;3.15;;;8.10;89.00;;;;;;5027545;28;20025;-43
2023/01/13 13:48:26;;;;;;;14.60;2.70;;;8.30;88.40;;;;;;5012961;28;20125;-43
2023/01/13 13:51:04;;;;;;;14.82;4.63;;;8.40;88.20;;;;;;5029198;28;20408;-44
2023/01/13 13:53:37;;;;;;;18.08;3.45;;;8.40;87.90;;;;;;5015102;28;20034;-49
2023/01/13 13:56:15;;;;;;;13.55;3.38;;;8.40;87.90;;;;;;5016999;28;20029;-43
2023/01/13 13:58:43;;;;;;;16.70;3.92;;;8.40;88.00;;;;;;5021312;28;20149;-43
2023/01/13 14:01:27;;;;;;;8.45;2.75;;;8.40;87.80;;;;;;5012371;28;20045;-46
2023/01/13 14:04:30;;;;;;;11.32;2.70;;;8.40;87.60;;;;;;5009892;28;20201;-44
2023/01/13 14:07:05;;;;;;;12.38;3.55;;;8.40;87.50;;;;;;5023916;28;20106;-45
2023/01/13 14:09:44;;;;;;;10.75;3.25;;;8.40;87.20;;;;;;5029071;28;20029;-44
2023/01/13 14:12:24;;;;;;;11.00;2.88;;;8.40;86.80;;;;;;5031185;28;20030;-47
2023/01/13 14:14:54;;;;;;;14.55;2.97;;;8.40;86.80;;;;;;5031509;28;20026;-46
2023/01/13 14:17:38;;;;;;;14.30;3.45;;;8.50;86.60;;;;;;5019487;28;20045;-48
2023/01/13 14:20:16;;;;;;;9.13;2.70;;;8.50;86.00;;;;;;5017588;28;20033;-47
2023/01/13 14:22:52;;;;;;;9.82;2.88;;;8.60;86.00;;;;;;5029299;28;20033;-44
2023/01/13 14:25:45;;;;;;;13.18;2.58;;;8.50;85.20;;;;;;5012143;28;20034;-46
2023/01/13 14:28:34;;;;;;;18.23;3.75;;;8.50;85.50;;;;;;5010691;28;20026;-44
2023/01/13 14:31:03;;;;;;;10.68;3.28;;;8.40;85.80;;;;;;5028075;28;20392;-44